Time;durP1;ratioP1;P1;durP2;ratioP2;P2;SDS_P1;SDS_P2;PMS_P1;PMS_P2;Temp;Humidity;BMP_temperature;BMP_pressure;BME280_temperature;BME280_humidity;BME280_pressure;Samples;Min_cycle;Max_cycle;Signal;HPM_P1;HPM_P2
2023/04/23 00:02:21;;;;;;;14.97;13.03;;;24.40;48.10;;;;;;5074697;28;20424;-82
2023/04/23 00:04:50;;;;;;;22.20;12.47;;;24.40;48.10;;;;;;5075859;28;20523;-82
2023/04/23 00:07:20;;;;;;;15.83;12.97;;;24.40;48.20;;;;;;5064943;28;20535;-82
2023/04/23 00:09:49;;;;;;;17.47;11.63;;;24.40;48.30;;;;;;5066232;28;20529;-82
2023/04/23 00:12:19;;;;;;;19.37;12.47;;;24.40;48.30;;;;;;5077622;28;20412;-83
2023/04/23 00:14:48;;;;;;;14.87;12.00;;;24.40;48.30;;;;;;5072778;28;20434;-83
2023/04/23 00:17:16;;;;;;;18.27;12.37;;;24.30;48.20;;;;;;5069191;28;20534;-82
2023/04/23 00:19:44;;;;;;;17.20;11.90;;;24.30;48.30;;;;;;5077451;28;20428;-82
2023/04/23 00:22:13;;;;;;;16.50;11.83;;;24.30;48.40;;;;;;5070468;28;20473;-83
2023/04/23 00:30:49;;;;;;;14.37;11.30;;;24.30;48.40;;;;;;5069421;28;20462;-83
2023/04/23 00:33:48;;;;;;;16.20;11.23;;;24.20;48.30;;;;;;5078510;28;20449;-82
2023/04/23 00:36:17;;;;;;;14.20;10.73;;;24.20;48.40;;;;;;5075350;28;20445;-83
2023/04/23 00:38:45;;;;;;;13.50;10.33;;;24.10;48.40;;;;;;5073100;28;20499;-84
2023/04/23 00:41:14;;;;;;;14.73;10.80;;;24.10;48.40;;;;;;5078355;28;20508;-83
2023/04/23 00:43:44;;;;;;;12.87;10.60;;;24.10;48.50;;;;;;5082972;28;20525;-82
2023/04/23 00:46:12;;;;;;;15.37;10.70;;;24.10;48.50;;;;;;5066035;28;20417;-82
2023/04/23 00:48:40;;;;;;;16.10;10.07;;;24.10;48.50;;;;;;5074247;28;20412;-83
2023/04/23 00:51:10;;;;;;;16.07;10.53;;;24.10;48.50;;;;;;5074638;28;20485;-83
2023/04/23 00:53:39;;;;;;;12.17;10.23;;;24.00;48.40;;;;;;5073613;28;20548;-83
2023/04/23 00:56:08;;;;;;;11.73;9.90;;;24.00;48.50;;;;;;5075388;28;20932;-83
2023/04/23 00:58:36;;;;;;;13.10;10.80;;;24.00;48.50;;;;;;5065944;28;20469;-82
2023/04/23 01:01:06;;;;;;;15.43;10.00;;;23.90;48.60;;;;;;5077843;28;20477;-82
2023/04/23 01:03:35;;;;;;;18.23;10.57;;;23.90;48.60;;;;;;5074531;28;20438;-82
2023/04/23 01:06:04;;;;;;;13.00;9.20;;;23.90;48.70;;;;;;5078404;28;20416;-82
2023/04/23 01:08:32;;;;;;;12.60;9.50;;;23.90;48.70;;;;;;5075180;28;20449;-82
2023/04/23 01:11:01;;;;;;;11.50;9.30;;;23.90;48.80;;;;;;5076481;28;20466;-83
2023/04/23 01:13:29;;;;;;;10.77;9.03;;;23.90;48.80;;;;;;5074905;28;20448;-81
2023/04/23 01:15:57;;;;;;;10.43;9.20;;;23.80;48.80;;;;;;5080338;28;20427;-83
2023/04/23 01:18:28;;;;;;;11.20;8.90;;;23.80;48.70;;;;;;5073818;28;20474;-82
2023/04/23 01:20:56;;;;;;;12.60;8.97;;;23.80;48.80;;;;;;5077764;28;20511;-82
2023/04/23 01:23:26;;;;;;;13.60;9.03;;;23.80;48.80;;;;;;5077098;28;20524;-83
2023/04/23 01:25:55;;;;;;;11.07;8.77;;;23.80;48.80;;;;;;5081734;28;20455;-83
2023/04/23 01:28:23;;;;;;;10.97;8.80;;;23.80;48.90;;;;;;5068891;28;20465;-82
2023/04/23 01:31:05;;;;;;;12.77;8.67;;;23.70;48.70;;;;;;5070191;28;20470;-81
2023/04/23 01:33:41;;;;;;;10.80;8.50;;;23.70;49.00;;;;;;5069733;28;20424;-81
2023/04/23 01:36:09;;;;;;;11.87;8.67;;;23.70;48.90;;;;;;5074797;28;20499;-82
2023/04/23 01:38:39;;;;;;;10.87;9.10;;;23.70;49.00;;;;;;5072008;28;20451;-83
2023/04/23 01:41:10;;;;;;;9.03;8.10;;;23.70;49.00;;;;;;5076145;28;20473;-82
2023/04/23 01:43:39;;;;;;;10.20;7.87;;;23.60;49.00;;;;;;5069408;28;20447;-81
2023/04/23 01:46:12;;;;;;;9.67;8.47;;;23.60;48.90;;;;;;5071928;28;20449;-81
2023/04/23 01:48:56;;;;;;;10.33;8.30;;;23.60;48.90;;;;;;5072900;28;20472;-81
2023/04/23 01:51:37;;;;;;;13.57;8.13;;;23.60;49.00;;;;;;5069677;28;20465;-82
2023/04/23 01:54:12;;;;;;;8.90;7.80;;;23.60;49.00;;;;;;5068407;28;20477;-81
2023/04/23 01:56:59;;;;;;;10.00;8.50;;;23.50;48.90;;;;;;5066842;28;20455;-81
2023/04/23 01:59:34;;;;;;;10.50;8.37;;;23.50;49.00;;;;;;5066646;28;20466;-82
2023/04/23 02:02:02;;;;;;;10.40;7.90;;;23.50;49.10;;;;;;5065926;28;20472;-80
2023/04/23 02:04:30;;;;;;;8.87;7.97;;;23.50;49.20;;;;;;5066106;28;20453;-81
2023/04/23 02:07:00;;;;;;;9.70;7.43;;;23.40;49.10;;;;;;5068554;28;20450;-81
2023/04/23 02:09:29;;;;;;;11.07;8.60;;;23.40;49.20;;;;;;5064547;28;20472;-81
2023/04/23 02:11:58;;;;;;;8.37;7.47;;;23.40;49.20;;;;;;5072197;28;20466;-81
2023/04/23 02:14:26;;;;;;;7.60;6.80;;;23.40;49.30;;;;;;5073557;28;20796;-82
2023/04/23 02:16:54;;;;;;;8.27;6.70;;;23.30;49.20;;;;;;5067171;28;20478;-82
2023/04/23 02:19:22;;;;;;;8.13;7.20;;;23.30;49.20;;;;;;5077232;28;20450;-82
2023/04/23 02:21:50;;;;;;;10.47;7.57;;;23.30;49.30;;;;;;5063673;28;20432;-82
2023/04/23 02:24:18;;;;;;;8.60;7.30;;;23.30;49.30;;;;;;5070913;28;20545;-82
2023/04/23 02:26:48;;;;;;;9.00;7.30;;;23.20;49.40;;;;;;5063852;28;20447;-82
2023/04/23 02:29:16;;;;;;;7.70;6.90;;;23.30;49.40;;;;;;5068551;28;20485;-82
2023/04/23 02:31:44;;;;;;;8.33;7.27;;;23.20;49.40;;;;;;5068292;28;20445;-83
2023/04/23 02:34:12;;;;;;;7.93;7.07;;;23.20;49.40;;;;;;5065882;28;20445;-81
2023/04/23 02:36:40;;;;;;;10.77;6.80;;;23.20;49.40;;;;;;5069960;28;20420;-82
2023/04/23 02:39:08;;;;;;;7.37;6.53;;;23.10;49.30;;;;;;5071714;28;20557;-82
2023/04/23 02:41:36;;;;;;;11.80;6.63;;;23.10;49.30;;;;;;5066006;28;20553;-81
2023/04/23 02:44:06;;;;;;;9.40;6.30;;;23.10;49.50;;;;;;5082720;28;20435;-82
2023/04/23 02:46:36;;;;;;;10.47;6.43;;;23.10;49.40;;;;;;5075490;28;20452;-82
2023/04/23 02:49:05;;;;;;;7.60;5.83;;;23.10;49.50;;;;;;5080322;28;20408;-80
2023/04/23 02:51:34;;;;;;;10.53;6.50;;;23.10;49.50;;;;;;5077546;28;20557;-81
2023/04/23 02:54:02;;;;;;;8.23;7.30;;;23.00;49.40;;;;;;5063821;28;20435;-79
2023/04/23 02:56:30;;;;;;;6.97;6.30;;;23.00;49.50;;;;;;5066491;28;20435;-81
2023/04/23 02:58:58;;;;;;;7.50;6.17;;;23.00;49.60;;;;;;5055648;28;20421;-81
2023/04/23 03:01:28;;;;;;;7.23;6.20;;;23.00;49.50;;;;;;5074730;28;20536;-81
2023/04/23 03:03:56;;;;;;;7.33;6.43;;;23.00;49.50;;;;;;5074279;28;20774;-81
2023/04/23 03:06:24;;;;;;;6.60;5.90;;;22.90;49.50;;;;;;5066888;28;20449;-81
2023/04/23 03:08:52;;;;;;;10.90;6.60;;;22.90;49.60;;;;;;5076241;28;20408;-81
2023/04/23 03:11:21;;;;;;;7.63;6.57;;;22.90;49.60;;;;;;5069206;28;20462;-81
2023/04/23 03:13:49;;;;;;;8.13;6.57;;;22.80;49.70;;;;;;5074161;28;20424;-81
2023/04/23 03:16:17;;;;;;;6.40;5.80;;;22.80;49.80;;;;;;5075841;28;20422;-81
2023/04/23 03:18:47;;;;;;;9.20;6.07;;;22.80;49.70;;;;;;5078223;28;20442;-82
2023/04/23 03:21:15;;;;;;;6.20;5.60;;;22.80;49.70;;;;;;5078848;28;20448;-81
2023/04/23 03:23:44;;;;;;;7.63;6.50;;;22.80;49.90;;;;;;5074129;28;20460;-81
2023/04/23 03:26:12;;;;;;;10.70;6.47;;;22.70;49.70;;;;;;5077927;28;20480;-81
2023/04/23 03:28:40;;;;;;;6.07;5.47;;;22.80;49.80;;;;;;5078677;28;20513;-81
2023/04/23 03:31:08;;;;;;;7.20;6.50;;;22.70;49.60;;;;;;5079886;28;20448;-81
2023/04/23 03:33:37;;;;;;;6.47;5.87;;;22.70;49.70;;;;;;5073138;28;20420;-80
2023/04/23 03:36:07;;;;;;;7.10;5.83;;;22.70;49.80;;;;;;5069779;28;20477;-82
2023/04/23 03:38:35;;;;;;;10.47;5.50;;;22.70;49.90;;;;;;5069291;28;20444;-81
2023/04/23 03:41:05;;;;;;;11.27;5.97;;;22.70;49.90;;;;;;5077839;28;20693;-82
2023/04/23 03:43:33;;;;;;;8.33;5.80;;;22.60;49.80;;;;;;5065684;28;20428;-80
2023/04/23 03:46:02;;;;;;;6.87;6.20;;;22.60;49.90;;;;;;5072775;28;20456;-79
2023/04/23 03:48:30;;;;;;;8.87;6.00;;;22.60;49.90;;;;;;5079412;28;21037;-82
2023/04/23 03:50:58;;;;;;;9.03;5.37;;;22.60;49.90;;;;;;5078646;28;20454;-81
2023/04/23 03:53:28;;;;;;;6.63;6.03;;;22.50;49.80;;;;;;5079529;28;20441;-81
2023/04/23 03:55:56;;;;;;;7.00;6.30;;;22.50;49.90;;;;;;5078651;28;20442;-82
2023/04/23 03:58:25;;;;;;;8.17;5.73;;;22.50;49.80;;;;;;5078860;28;20452;-80
2023/04/23 04:00:56;;;;;;;8.53;6.67;;;22.50;49.90;;;;;;5078266;28;20477;-82
2023/04/23 04:03:27;;;;;;;8.17;5.93;;;22.50;49.90;;;;;;5072808;28;20496;-82
2023/04/23 04:05:56;;;;;;;6.60;6.00;;;22.40;49.90;;;;;;5078279;28;20452;-83
2023/04/23 04:08:25;;;;;;;6.07;5.50;;;22.40;50.00;;;;;;5071569;28;20416;-81
2023/04/23 04:11:05;;;;;;;6.13;5.53;;;22.40;49.80;;;;;;5063603;28;20466;-82
2023/04/23 04:13:43;;;;;;;7.30;5.80;;;22.30;49.90;;;;;;5078262;28;20447;-82
2023/04/23 04:16:11;;;;;;;8.23;6.73;;;22.30;50.00;;;;;;5074785;28;20451;-83
2023/04/23 04:18:39;;;;;;;6.10;5.50;;;22.30;50.00;;;;;;5068952;28;20480;-82
2023/04/23 04:21:07;;;;;;;7.73;5.80;;;22.30;50.10;;;;;;5075764;28;20479;-81
2023/04/23 04:23:41;;;;;;;7.00;5.93;;;22.30;50.00;;;;;;5073266;28;20477;-82
2023/04/23 04:26:15;;;;;;;6.53;5.83;;;22.20;49.90;;;;;;5078263;28;20449;-82
2023/04/23 04:28:46;;;;;;;6.53;4.70;;;22.20;49.90;;;;;;5077950;28;20499;-81
2023/04/23 04:31:19;;;;;;;6.50;5.77;;;22.20;50.10;;;;;;5077701;28;20440;-81
2023/04/23 04:34:07;;;;;;;6.90;6.10;;;22.20;50.00;;;;;;5077293;28;20409;-81
2023/04/23 04:36:43;;;;;;;6.43;5.80;;;22.20;50.10;;;;;;5075573;28;20449;-82
2023/04/23 04:39:15;;;;;;;8.33;6.00;;;22.20;50.10;;;;;;5077937;28;20414;-81
2023/04/23 04:41:49;;;;;;;7.47;5.73;;;22.20;50.00;;;;;;5078272;28;20970;-81
2023/04/23 04:44:18;;;;;;;7.40;6.10;;;22.20;50.10;;;;;;5077172;28;20458;-82
2023/04/23 04:46:46;;;;;;;6.17;5.53;;;22.20;50.00;;;;;;5077292;28;20469;-82
2023/04/23 04:49:21;;;;;;;6.87;5.83;;;22.20;50.10;;;;;;5077290;28;20470;-82
2023/04/23 04:51:50;;;;;;;6.67;5.70;;;22.10;50.10;;;;;;5067607;28;20466;-83
2023/04/23 04:54:18;;;;;;;7.37;5.80;;;22.10;50.10;;;;;;5075623;28;20420;-82
2023/04/23 04:56:49;;;;;;;6.13;5.57;;;22.20;50.10;;;;;;5077260;28;20446;-82
2023/04/23 04:59:19;;;;;;;6.00;5.50;;;22.20;49.90;;;;;;5076752;28;20443;-82
2023/04/23 05:01:47;;;;;;;10.60;6.30;;;22.10;50.00;;;;;;5064739;28;20501;-82
2023/04/23 05:04:15;;;;;;;7.23;5.90;;;22.10;49.80;;;;;;5076921;28;20443;-81
2023/04/23 05:06:46;;;;;;;6.60;5.90;;;22.10;50.10;;;;;;5077561;28;20437;-82
2023/04/23 05:09:14;;;;;;;6.40;5.50;;;22.10;50.10;;;;;;5073233;28;20451;-82
2023/04/23 05:11:42;;;;;;;5.97;5.47;;;22.00;49.90;;;;;;5077569;28;20484;-82
2023/04/23 05:14:12;;;;;;;6.73;6.03;;;22.10;50.10;;;;;;5076315;28;20446;-82
2023/04/23 05:16:47;;;;;;;7.47;5.97;;;22.00;50.00;;;;;;5065319;28;20446;-83
2023/04/23 05:19:16;;;;;;;6.33;5.73;;;22.10;49.90;;;;;;5074164;28;20454;-81
2023/04/23 05:21:46;;;;;;;6.67;6.00;;;22.10;49.90;;;;;;5065673;28;20502;-83
2023/04/23 05:24:19;;;;;;;6.50;5.90;;;22.00;50.10;;;;;;5073764;28;20438;-82
2023/04/23 05:26:50;;;;;;;7.73;5.80;;;22.00;50.00;;;;;;5056841;28;20507;-82
2023/04/23 05:29:22;;;;;;;7.47;6.30;;;22.00;50.00;;;;;;5073999;28;20456;-82
2023/04/23 05:31:50;;;;;;;6.67;5.80;;;22.00;50.00;;;;;;5077329;28;20492;-81
2023/04/23 05:34:18;;;;;;;6.27;5.67;;;22.10;50.10;;;;;;5076325;28;20458;-82
2023/04/23 05:36:46;;;;;;;8.73;7.60;;;22.10;50.00;;;;;;5076705;28;20420;-83
2023/04/23 05:39:22;;;;;;;9.40;8.10;;;22.10;49.80;;;;;;5076811;28;20536;-82
2023/04/23 05:41:50;;;;;;;7.70;6.90;;;22.00;49.80;;;;;;5076604;28;20493;-83
2023/04/23 05:44:19;;;;;;;9.17;7.90;;;22.00;49.90;;;;;;5075891;28;20458;-82
2023/04/23 05:46:47;;;;;;;8.90;8.00;;;22.00;50.00;;;;;;5076451;28;20450;-82
2023/04/23 05:49:15;;;;;;;9.93;8.20;;;22.00;49.90;;;;;;5067598;28;20421;-81
2023/04/23 05:51:43;;;;;;;10.70;8.57;;;22.00;50.10;;;;;;5076772;28;20438;-82
2023/04/23 05:54:18;;;;;;;9.57;8.23;;;22.00;50.00;;;;;;5075164;28;20437;-82
2023/04/23 05:56:46;;;;;;;10.17;8.13;;;22.00;49.90;;;;;;5069245;28;20413;-83
2023/04/23 05:59:19;;;;;;;11.30;8.40;;;22.00;49.80;;;;;;5080801;28;20447;-82
2023/04/23 06:02:02;;;;;;;9.97;8.57;;;22.10;49.70;;;;;;5066432;28;20470;-81
2023/04/23 06:04:30;;;;;;;13.17;9.10;;;22.10;49.70;;;;;;5080423;28;20989;-83
2023/04/23 06:06:59;;;;;;;11.33;9.00;;;22.10;49.80;;;;;;5081238;28;20475;-83
2023/04/23 06:09:27;;;;;;;11.07;8.80;;;22.20;49.70;;;;;;5079921;28;20447;-84
2023/04/23 06:11:56;;;;;;;10.27;8.50;;;22.20;49.50;;;;;;5076968;28;20496;-83
2023/04/23 06:14:25;;;;;;;11.83;9.50;;;22.20;49.60;;;;;;5077388;28;20444;-83
2023/04/23 06:16:53;;;;;;;12.50;10.00;;;22.20;49.50;;;;;;5073955;28;20922;-83
2023/04/23 06:19:23;;;;;;;10.70;9.27;;;22.20;49.50;;;;;;5079483;28;20481;-83
2023/04/23 06:21:52;;;;;;;11.67;9.70;;;22.20;49.40;;;;;;5075059;28;20517;-82
2023/04/23 06:24:20;;;;;;;11.20;9.53;;;22.20;49.40;;;;;;5076789;28;20446;-82
2023/04/23 06:26:48;;;;;;;9.90;8.27;;;22.20;49.40;;;;;;5080331;28;20533;-82
2023/04/23 06:29:16;;;;;;;12.97;9.83;;;22.20;49.40;;;;;;5079163;28;20486;-82
2023/04/23 06:31:47;;;;;;;12.37;9.67;;;22.30;49.40;;;;;;5071718;28;20519;-83
2023/04/23 06:34:15;;;;;;;11.47;8.93;;;22.30;49.40;;;;;;5078319;28;20435;-83
2023/04/23 06:36:43;;;;;;;11.23;9.10;;;22.30;49.30;;;;;;5079820;28;20456;-83
2023/04/23 06:39:12;;;;;;;12.20;9.47;;;22.30;49.30;;;;;;5067276;28;20492;-82
2023/04/23 06:41:40;;;;;;;13.47;10.50;;;22.40;49.30;;;;;;5069092;28;20470;-83
2023/04/23 06:44:08;;;;;;;10.13;8.80;;;22.50;49.20;;;;;;5079071;28;20460;-83
2023/04/23 06:46:36;;;;;;;11.50;9.43;;;22.50;48.90;;;;;;5077288;28;20449;-82
2023/04/23 06:49:10;;;;;;;11.77;9.37;;;22.60;48.90;;;;;;5058486;28;20442;-81
2023/04/23 06:51:39;;;;;;;14.63;10.30;;;22.70;48.80;;;;;;5057000;28;20445;-82
2023/04/23 06:54:07;;;;;;;15.47;9.40;;;22.80;48.80;;;;;;5058709;28;20514;-82
2023/04/23 06:56:35;;;;;;;14.40;11.50;;;22.80;48.80;;;;;;5070979;28;20496;-82
2023/04/23 06:59:09;;;;;;;15.90;10.70;;;22.90;48.70;;;;;;5059838;28;20415;-81
2023/04/23 07:01:48;;;;;;;13.47;11.20;;;22.90;48.70;;;;;;5061419;28;20479;-81
2023/04/23 07:04:17;;;;;;;14.33;10.83;;;22.90;48.70;;;;;;5058603;28;20477;-82
2023/04/23 07:06:55;;;;;;;15.67;12.03;;;23.00;48.80;;;;;;5061309;28;20442;-82
2023/04/23 07:09:36;;;;;;;15.97;11.20;;;23.00;48.70;;;;;;5066989;28;20454;-81
2023/04/23 07:12:11;;;;;;;13.63;11.40;;;23.10;48.80;;;;;;5070070;28;20465;-81
2023/04/23 07:14:53;;;;;;;16.60;12.30;;;23.10;48.60;;;;;;5076646;28;20424;-84
2023/04/23 07:17:21;;;;;;;15.20;11.77;;;23.10;48.70;;;;;;5076048;28;20461;-82
2023/04/23 07:19:51;;;;;;;8.00;6.60;;;23.20;48.80;;;;;;5070119;28;20413;-76
2023/04/23 07:22:19;;;;;;;10.50;5.00;;;23.40;51.00;;;;;;5056564;28;20532;-76
2023/04/23 07:24:47;;;;;;;8.13;5.33;;;23.90;51.60;;;;;;5072447;28;20449;-76
2023/04/23 07:27:15;;;;;;;7.80;5.83;;;24.30;51.40;;;;;;5060648;28;20432;-76
2023/04/23 07:29:43;;;;;;;9.20;6.57;;;24.50;50.60;;;;;;5061819;28;20457;-76
2023/04/23 07:32:11;;;;;;;9.27;5.50;;;24.80;50.30;;;;;;5068723;28;20454;-76
2023/04/23 07:34:39;;;;;;;9.20;6.37;;;25.00;50.00;;;;;;5063560;28;20450;-76
2023/04/23 07:37:09;;;;;;;8.30;6.10;;;25.10;49.60;;;;;;5064745;28;20495;-76
2023/04/23 07:39:37;;;;;;;9.90;7.27;;;25.20;49.30;;;;;;5062999;28;20440;-76
2023/04/23 07:42:05;;;;;;;14.73;6.30;;;25.20;48.90;;;;;;5067678;28;20565;-75
2023/04/23 07:44:33;;;;;;;7.00;6.10;;;25.20;48.90;;;;;;5063897;28;20448;-77
2023/04/23 07:47:02;;;;;;;9.47;6.70;;;25.20;49.00;;;;;;5065565;28;20447;-76
2023/04/23 07:49:30;;;;;;;8.90;5.90;;;25.30;48.90;;;;;;5071248;28;20490;-76
2023/04/23 07:51:58;;;;;;;6.10;5.50;;;25.30;48.90;;;;;;5069287;28;20546;-76
2023/04/23 07:54:27;;;;;;;8.77;6.00;;;25.30;48.90;;;;;;5061981;28;20443;-76
2023/04/23 07:56:56;;;;;;;7.97;6.93;;;25.40;48.90;;;;;;5065415;28;20421;-76
2023/04/23 07:59:24;;;;;;;6.80;6.20;;;25.60;48.70;;;;;;5066440;28;20441;-76
2023/04/23 08:01:52;;;;;;;6.90;6.07;;;25.60;48.30;;;;;;5058981;28;20457;-76
2023/04/23 08:04:20;;;;;;;6.17;5.53;;;25.60;48.30;;;;;;5067368;28;20438;-77
2023/04/23 08:06:48;;;;;;;7.40;6.03;;;25.80;48.40;;;;;;5068003;28;20409;-76
2023/04/23 08:09:16;;;;;;;5.87;5.10;;;25.90;48.10;;;;;;5062095;28;20406;-77
2023/04/23 08:11:47;;;;;;;8.17;5.43;;;25.90;47.80;;;;;;5071902;28;20481;-76
2023/04/23 08:14:15;;;;;;;5.90;5.30;;;26.00;47.80;;;;;;5072510;28;20420;-75
2023/04/23 08:16:43;;;;;;;5.70;5.20;;;26.10;47.50;;;;;;5066576;28;20417;-75
2023/04/23 08:19:11;;;;;;;5.43;4.93;;;26.10;47.40;;;;;;5073221;28;20416;-74
2023/04/23 08:21:39;;;;;;;5.60;5.10;;;26.20;47.40;;;;;;5073057;28;20471;-74
2023/04/23 08:24:07;;;;;;;8.90;6.10;;;26.30;47.20;;;;;;5078500;28;20420;-74
2023/04/23 08:26:35;;;;;;;6.10;5.50;;;26.30;47.00;;;;;;5069893;28;20444;-75
2023/04/23 08:29:05;;;;;;;7.43;5.50;;;26.30;47.00;;;;;;5068273;28;20443;-75
2023/04/23 08:31:36;;;;;;;6.13;5.63;;;26.40;47.00;;;;;;5073871;28;20454;-75
2023/04/23 08:34:04;;;;;;;7.70;5.47;;;26.50;47.00;;;;;;5059606;28;20544;-75
2023/04/23 08:36:32;;;;;;;7.20;6.50;;;26.60;47.00;;;;;;5071967;28;20404;-76
2023/04/23 08:39:02;;;;;;;6.73;6.00;;;26.60;46.70;;;;;;5071370;28;20407;-75
2023/04/23 08:41:34;;;;;;;6.33;5.73;;;26.70;46.60;;;;;;5068709;28;20436;-75
2023/04/23 08:44:07;;;;;;;6.70;5.60;;;26.80;46.70;;;;;;5070465;28;20469;-76
2023/04/23 08:46:35;;;;;;;6.37;5.70;;;26.90;46.50;;;;;;5073038;28;20415;-75
2023/04/23 08:49:03;;;;;;;7.20;5.40;;;26.90;46.30;;;;;;5073002;28;20416;-74
2023/04/23 08:51:31;;;;;;;5.20;4.70;;;27.00;46.00;;;;;;5073391;28;20515;-74
2023/04/23 08:53:59;;;;;;;5.40;4.90;;;27.10;45.80;;;;;;5072959;28;20452;-75
2023/04/23 08:56:27;;;;;;;9.33;5.40;;;27.20;45.70;;;;;;5073068;28;20923;-75
2023/04/23 08:58:55;;;;;;;5.10;4.70;;;27.30;45.60;;;;;;5067666;28;20773;-74
2023/04/23 09:01:25;;;;;;;4.80;4.50;;;27.40;45.30;;;;;;5053978;28;20449;-75
2023/04/23 09:03:53;;;;;;;5.03;4.63;;;27.50;45.00;;;;;;5066626;28;20462;-76
2023/04/23 09:06:22;;;;;;;4.73;4.27;;;27.60;45.00;;;;;;5073861;28;20446;-74
2023/04/23 09:08:50;;;;;;;5.13;4.73;;;27.70;44.80;;;;;;5065465;28;20449;-76
2023/04/23 09:11:18;;;;;;;4.70;4.30;;;27.80;44.60;;;;;;5063012;28;20465;-75
2023/04/23 09:13:46;;;;;;;4.93;4.60;;;27.90;44.30;;;;;;5065080;28;20437;-76
2023/04/23 09:16:14;;;;;;;5.53;4.87;;;28.10;44.20;;;;;;5072713;28;20445;-75
2023/04/23 09:18:44;;;;;;;5.43;4.93;;;28.20;44.10;;;;;;5064825;28;20443;-75
2023/04/23 09:21:13;;;;;;;5.30;4.80;;;28.40;43.50;;;;;;5069959;28;20432;-74
2023/04/23 09:23:41;;;;;;;5.00;4.50;;;28.70;43.30;;;;;;5061361;28;20470;-75
2023/04/23 09:26:09;;;;;;;5.63;5.23;;;28.80;42.60;;;;;;5053442;28;20447;-74
2023/04/23 09:28:37;;;;;;;5.27;4.30;;;29.00;42.40;;;;;;5071077;28;20434;-75
2023/04/23 09:31:06;;;;;;;8.13;5.20;;;29.20;42.10;;;;;;5068104;28;20489;-75
2023/04/23 09:33:35;;;;;;;4.60;4.23;;;29.30;41.70;;;;;;5071434;28;20446;-74
2023/04/23 09:36:09;;;;;;;4.40;4.00;;;29.20;41.40;;;;;;5076914;28;20488;-75
2023/04/23 09:38:39;;;;;;;5.33;4.77;;;29.10;41.40;;;;;;5075068;28;20429;-75
2023/04/23 09:41:21;;;;;;;7.50;4.70;;;29.10;41.70;;;;;;5076525;28;20454;-75
2023/04/23 09:43:48;;;;;;;6.70;4.93;;;29.20;41.70;;;;;;5062053;28;20484;-75
2023/04/23 09:46:17;;;;;;;4.97;4.57;;;29.40;41.60;;;;;;5065305;28;20416;-75
2023/04/23 09:48:46;;;;;;;7.23;4.30;;;29.60;41.30;;;;;;5071390;28;20945;-74
2023/04/23 09:51:16;;;;;;;4.30;3.90;;;29.80;41.00;;;;;;5074301;28;20469;-76
2023/04/23 09:53:44;;;;;;;4.50;4.10;;;29.80;40.50;;;;;;5076151;28;20441;-75
2023/04/23 09:56:13;;;;;;;4.33;4.00;;;29.90;40.50;;;;;;5075984;28;20441;-75
2023/04/23 09:58:41;;;;;;;4.83;4.40;;;30.00;40.50;;;;;;5075849;28;20528;-74
2023/04/23 10:01:08;;;;;;;5.10;4.70;;;30.10;40.30;;;;;;5069116;28;20457;-75
2023/04/23 10:03:36;;;;;;;4.43;4.23;;;30.20;40.00;;;;;;5075269;28;20473;-76
2023/04/23 10:06:08;;;;;;;7.67;4.97;;;30.30;40.00;;;;;;5058610;28;20451;-76
2023/04/23 10:08:53;;;;;;;5.63;4.07;;;30.50;39.90;;;;;;5054663;28;20450;-76
2023/04/23 10:11:22;;;;;;;6.80;4.90;;;30.50;39.60;;;;;;5054680;28;20458;-75
2023/04/23 10:13:50;;;;;;;6.13;5.63;;;30.50;39.50;;;;;;5067726;28;20430;-75
2023/04/23 10:16:18;;;;;;;6.73;5.50;;;30.50;38.90;;;;;;5075557;28;20426;-75
2023/04/23 10:18:55;;;;;;;6.60;6.00;;;30.40;38.70;;;;;;5059930;28;20433;-76
2023/04/23 10:21:25;;;;;;;7.00;5.73;;;30.40;38.70;;;;;;5076000;28;20466;-75
2023/04/23 10:23:54;;;;;;;6.53;5.97;;;30.40;38.60;;;;;;5072916;28;20458;-76
2023/04/23 10:26:23;;;;;;;11.97;7.00;;;30.40;38.60;;;;;;5073543;28;20465;-76
2023/04/23 10:28:52;;;;;;;8.23;6.60;;;30.40;38.50;;;;;;5075693;28;20441;-76
2023/04/23 10:31:20;;;;;;;7.33;6.63;;;30.50;38.40;;;;;;5075473;28;20981;-76
2023/04/23 10:33:49;;;;;;;7.50;5.40;;;30.60;38.30;;;;;;5067714;28;20446;-76
2023/04/23 10:36:27;;;;;;;5.53;4.97;;;30.70;38.20;;;;;;5068741;28;20432;-75
2023/04/23 10:38:59;;;;;;;6.50;5.30;;;30.80;38.20;;;;;;5075793;28;20437;-76
2023/04/23 10:41:31;;;;;;;5.50;5.07;;;30.90;38.00;;;;;;5074509;28;20467;-75
2023/04/23 10:43:59;;;;;;;6.57;5.87;;;31.00;38.00;;;;;;5075007;28;20465;-76
2023/04/23 10:46:34;;;;;;;8.83;6.00;;;31.00;37.70;;;;;;5075256;28;20521;-76
2023/04/23 10:49:07;;;;;;;7.93;5.10;;;31.20;37.80;;;;;;5069832;28;20454;-75
2023/04/23 10:51:35;;;;;;;9.00;5.77;;;31.20;37.60;;;;;;5073667;28;20847;-76
2023/04/23 10:54:08;;;;;;;5.60;5.20;;;31.20;37.50;;;;;;5075605;28;20452;-77
2023/04/23 10:56:38;;;;;;;5.40;4.90;;;31.30;37.60;;;;;;5063634;28;20481;-76
2023/04/23 10:59:07;;;;;;;7.90;5.60;;;31.50;37.70;;;;;;5065765;28;20442;-76
2023/04/23 11:01:35;;;;;;;5.30;4.90;;;31.60;37.70;;;;;;5072758;28;20466;-76
2023/04/23 11:04:20;;;;;;;22.27;18.10;;;31.80;37.60;;;;;;5068875;28;20473;-76
2023/04/23 11:06:53;;;;;;;21.90;19.00;;;29.20;33.60;;;;;;5066837;28;20487;-77
2023/04/23 11:09:47;;;;;;;23.53;18.87;;;27.40;36.20;;;;;;5074958;28;20496;-77
2023/04/23 11:12:31;;;;;;;29.87;20.40;;;25.60;38.60;;;;;;5055357;28;20441;-77
2023/04/23 11:14:59;;;;;;;25.97;19.60;;;24.30;41.60;;;;;;5061971;28;20459;-77
2023/04/23 11:18:03;;;;;;;33.20;21.77;;;24.10;41.50;;;;;;5061690;28;20405;-77
2023/04/23 11:20:31;;;;;;;33.53;20.00;;;23.40;43.80;;;;;;5069586;28;20454;-76
2023/04/23 11:22:59;;;;;;;31.30;20.67;;;24.50;42.40;;;;;;5067469;28;20496;-77
2023/04/23 11:25:29;;;;;;;27.17;20.63;;;25.10;41.70;;;;;;5064806;28;20459;-76
2023/04/23 11:27:58;;;;;;;21.20;17.20;;;23.80;43.30;;;;;;5066527;28;20405;-77
2023/04/23 11:30:26;;;;;;;22.67;15.97;;;24.30;44.70;;;;;;5067107;28;20432;-79
2023/04/23 11:32:54;;;;;;;20.87;14.80;;;25.30;40.00;;;;;;5066747;28;20432;-76
2023/04/23 11:35:27;;;;;;;16.50;12.80;;;24.90;40.60;;;;;;5070227;28;20442;-75
2023/04/23 11:37:55;;;;;;;17.90;13.47;;;24.00;41.80;;;;;;5062395;28;20441;-76
2023/04/23 11:40:23;;;;;;;15.90;13.60;;;23.80;42.40;;;;;;5074278;28;20460;-77
2023/04/23 11:42:53;;;;;;;17.03;12.90;;;23.90;42.40;;;;;;5074399;28;20438;-76
2023/04/23 11:45:23;;;;;;;14.93;12.20;;;23.90;42.30;;;;;;5078191;28;20458;-76
2023/04/23 11:47:54;;;;;;;14.87;12.90;;;23.80;42.80;;;;;;5088884;28;20452;-76
2023/04/23 11:50:24;;;;;;;12.50;11.20;;;23.70;43.60;;;;;;5060907;28;20566;-77
2023/04/23 11:52:57;;;;;;;15.23;12.10;;;24.90;42.90;;;;;;5074718;28;20941;-77
2023/04/23 11:55:26;;;;;;;15.87;12.30;;;25.20;41.30;;;;;;5072139;28;20902;-77
2023/04/23 11:57:57;;;;;;;19.27;14.40;;;25.80;41.50;;;;;;5072710;28;20412;-76
2023/04/23 12:00:26;;;;;;;15.23;12.37;;;26.00;40.20;;;;;;5072693;28;20974;-78
2023/04/23 12:02:57;;;;;;;14.30;10.43;;;25.20;40.00;;;;;;5072145;28;20986;-78
2023/04/23 12:05:28;;;;;;;11.90;8.47;;;25.30;39.20;;;;;;5073925;28;20548;-77
2023/04/23 12:08:06;;;;;;;11.80;9.63;;;25.60;39.30;;;;;;5064061;28;20465;-78
2023/04/23 12:10:46;;;;;;;16.57;10.93;;;25.90;38.00;;;;;;5063510;28;20474;-77
2023/04/23 12:13:18;;;;;;;14.10;10.40;;;24.70;39.70;;;;;;5057253;28;20438;-76
2023/04/23 12:15:50;;;;;;;15.33;10.70;;;24.20;41.40;;;;;;5061526;28;20468;-77
2023/04/23 12:18:18;;;;;;;9.93;8.97;;;26.30;40.70;;;;;;5060716;28;20438;-77
2023/04/23 12:20:46;;;;;;;7.53;6.83;;;27.90;36.50;;;;;;5061405;28;20486;-76
2023/04/23 12:23:16;;;;;;;6.90;6.20;;;29.30;35.50;;;;;;5063152;28;20537;-77
2023/04/23 12:25:45;;;;;;;7.50;6.80;;;29.90;33.00;;;;;;5065094;28;20461;-77
2023/04/23 12:28:17;;;;;;;10.27;7.03;;;31.00;31.20;;;;;;5064901;28;20475;-79
2023/04/23 12:30:46;;;;;;;9.63;6.90;;;31.30;31.20;;;;;;5059737;28;20462;-79
2023/04/23 12:33:14;;;;;;;9.03;7.13;;;32.50;31.10;;;;;;5072070;28;20516;-78
2023/04/23 12:35:43;;;;;;;6.37;5.70;;;32.70;29.40;;;;;;5068855;28;20805;-79
2023/04/23 12:38:22;;;;;;;7.60;5.77;;;33.90;28.70;;;;;;5063655;28;20469;-77
2023/04/23 12:40:50;;;;;;;4.67;4.07;;;30.50;28.90;;;;;;5068429;28;20449;-80
2023/04/23 12:43:20;;;;;;;6.63;3.30;;;30.40;31.80;;;;;;5070599;28;20447;-81
2023/04/23 12:46:00;;;;;;;4.43;3.30;;;30.50;31.40;;;;;;5065645;28;20512;-81
2023/04/23 12:48:29;;;;;;;6.10;2.63;;;30.60;31.40;;;;;;5066436;28;20464;-81
2023/04/23 12:51:03;;;;;;;3.00;2.80;;;31.10;32.70;;;;;;5077283;28;20466;-82
2023/04/23 12:53:34;;;;;;;4.20;2.60;;;33.20;31.50;;;;;;5071337;28;20479;-81
2023/04/23 12:56:02;;;;;;;2.20;2.10;;;35.30;29.40;;;;;;5080511;28;20437;-81
2023/04/23 12:58:39;;;;;;;1.97;1.87;;;36.60;28.00;;;;;;5070724;28;20450;-82
2023/04/23 13:01:10;;;;;;;6.33;1.70;;;38.10;27.50;;;;;;5077621;28;20461;-82
2023/04/23 13:03:39;;;;;;;1.77;1.67;;;39.20;26.10;;;;;;5078534;28;20513;-82